Time;durP1;ratioP1;P1;durP2;ratioP2;P2;SDS_P1;SDS_P2;PMS_P1;PMS_P2;Temp;Humidity;BMP_temperature;BMP_pressure;BME280_temperature;BME280_humidity;BME280_pressure;Samples;Min_cycle;Max_cycle;Signal;HPM_P1;HPM_P2
2022/03/12 00:00:07;;;;;;;;;;;10.40;80.80;10.80;99647.00;;;;346466;28;96930;-88
2022/03/12 00:00:19;;;;;;;;;;;10.50;80.90;10.80;99649.00;;;;346109;28;83420;-88
2022/03/12 00:00:31;;;;;;;;;;;10.40;80.80;10.90;99657.00;;;;345186;28;97419;-88
2022/03/12 00:00:43;;;;;;;;;;;10.50;80.90;10.80;99651.00;;;;346020;28;83494;-88
2022/03/12 00:00:56;;;;;;;;;;;10.40;80.90;10.90;99643.00;;;;346584;28;96756;-88
2022/03/12 00:01:08;;;;;;;;;;;10.40;81.00;10.80;99659.00;;;;347531;28;83387;-89
2022/03/12 00:01:21;;;;;;;;;;;10.40;81.10;10.80;99644.00;;;;346562;28;95496;-87
2022/03/12 00:01:33;;;;;;;;;;;10.40;81.00;10.90;99656.00;;;;345698;28;82421;-88
2022/03/12 00:01:45;;;;;;;;;;;10.40;81.00;10.90;99647.00;;;;343933;28;95422;-88
2022/03/12 00:01:57;;;;;;;;;;;10.40;81.10;10.90;99647.00;;;;344666;28;83449;-88
2022/03/12 00:02:08;;;;;;;;;;;10.40;81.00;10.90;99638.00;;;;345262;28;96714;-88
2022/03/12 00:02:21;;;;;;;;;;;10.40;81.00;10.80;99654.00;;;;345859;28;83463;-88
2022/03/12 00:02:34;;;;;;;;;;;10.40;81.20;10.80;99647.00;;;;343817;28;97129;-88
2022/03/12 00:02:46;;;;;;;;;;;10.40;81.10;10.80;99646.00;;;;347371;28;82541;-88
2022/03/12 00:02:58;;;;;;;;;;;10.40;81.20;10.80;99647.00;;;;345070;28;96529;-88
2022/03/12 00:03:10;;;;;;;;;;;10.40;81.20;10.80;99647.00;;;;347414;28;83359;-88
2022/03/12 00:03:22;;;;;;;;;;;10.40;81.10;10.80;99644.00;;;;348005;27;94551;-87
2022/03/12 00:03:34;;;;;;;;;;;10.40;81.10;10.80;99639.00;;;;346040;28;83506;-88
2022/03/12 00:03:47;;;;;;;;;;;10.40;81.00;10.80;99642.00;;;;346711;28;95390;-88
2022/03/12 00:04:00;;;;;;;;;;;10.40;81.10;10.80;99641.00;;;;344653;28;82698;-88
2022/03/12 00:04:13;;;;;;;;;;;10.40;81.30;10.80;99639.00;;;;346494;28;94526;-88
2022/03/12 00:04:26;;;;;;;;;;;10.40;81.30;10.80;99649.00;;;;346144;28;83354;-88
2022/03/12 00:04:40;;;;;;;;;;;10.40;81.30;10.80;99646.00;;;;346332;28;96625;-88
2022/03/12 00:04:51;;;;;;;;;;;10.40;81.30;10.80;99647.00;;;;347421;28;82500;-88
2022/03/12 00:05:07;;;;;;;;;;;10.40;81.30;10.80;99654.00;;;;349507;27;96676;-88
2022/03/12 00:05:19;;;;;;;;;;;10.40;81.30;10.70;99645.00;;;;347392;28;83355;-88
2022/03/12 00:05:33;;;;;;;;;;;10.40;81.40;10.70;99647.00;;;;345304;28;94159;-88
2022/03/12 00:06:09;;;;;;;;;;;10.40;81.30;10.70;99645.00;;;;346018;28;83464;-88
2022/03/12 00:06:18;;;;;;;;;;;10.40;81.50;10.70;99649.00;;;;346576;28;93003;-88
2022/03/12 00:06:30;;;;;;;;;;;10.40;81.50;10.70;99652.00;;;;347431;28;83282;-88
2022/03/12 00:06:42;;;;;;;;;;;10.40;81.50;10.70;99650.00;;;;346642;28;96467;-88
2022/03/12 00:06:53;;;;;;;;;;;10.40;81.60;10.70;99648.00;;;;347485;28;83415;-88
2022/03/12 00:07:09;;;;;;;;;;;10.40;81.60;10.70;99648.00;;;;346654;28;98032;-88
2022/03/12 00:07:20;;;;;;;;;;;10.40;81.60;10.80;99654.00;;;;348873;27;83283;-88
2022/03/12 00:07:32;;;;;;;;;;;10.40;81.70;10.80;99647.00;;;;348083;27;93180;-88
2022/03/12 00:07:46;;;;;;;;;;;10.40;81.60;10.70;99657.00;;;;347192;28;83535;-88
2022/03/12 00:08:00;;;;;;;;;;;10.40;81.60;10.70;99649.00;;;;345289;28;92698;-88
2022/03/12 00:08:12;;;;;;;;;;;10.30;81.70;10.70;99639.00;;;;347117;28;83470;-88
2022/03/12 00:08:31;;;;;;;;;;;10.40;82.00;10.70;99643.00;;;;345345;28;95415;-88
2022/03/12 00:08:44;;;;;;;;;;;10.30;81.70;10.80;99644.00;;;;347123;27;82644;-87
2022/03/12 00:08:56;;;;;;;;;;;10.40;82.00;10.80;99639.00;;;;346667;28;93881;-88
2022/03/12 00:09:07;;;;;;;;;;;10.30;81.80;10.70;99652.00;;;;347464;27;82465;-88
2022/03/12 00:09:19;;;;;;;;;;;10.30;81.70;10.80;99636.00;;;;345043;28;97556;-88
2022/03/12 00:09:31;;;;;;;;;;;10.30;81.80;10.80;99645.00;;;;350026;27;83680;-88
2022/03/12 00:09:43;;;;;;;;;;;10.30;81.70;10.80;99646.00;;;;349258;27;97295;-87
2022/03/12 00:09:54;;;;;;;;;;;10.30;81.60;10.70;99647.00;;;;347272;28;83499;-88
2022/03/12 00:10:07;;;;;;;;;;;10.40;81.70;10.70;99650.00;;;;346478;28;95539;-88
2022/03/12 00:10:21;;;;;;;;;;;10.40;81.80;10.70;99641.00;;;;346061;28;82516;-88
2022/03/12 00:10:33;;;;;;;;;;;10.30;82.00;10.80;99637.00;;;;345128;28;97146;-88
2022/03/12 00:10:48;;;;;;;;;;;10.30;81.90;10.80;99642.00;;;;345999;28;83357;-88
2022/03/12 00:11:01;;;;;;;;;;;10.30;81.90;10.80;99644.00;;;;346737;28;94214;-88
2022/03/12 00:11:16;;;;;;;;;;;10.30;82.00;10.80;99642.00;;;;347394;28;83383;-88
2022/03/12 00:11:30;;;;;;;;;;;10.30;81.90;10.80;99635.00;;;;346612;28;97600;-88
2022/03/12 00:11:55;;;;;;;;;;;10.40;81.90;10.90;99650.00;;;;347494;28;83315;-88
2022/03/12 00:12:09;;;;;;;;;;;10.30;81.80;10.70;99638.00;;;;348038;27;97280;-88
2022/03/12 00:12:21;;;;;;;;;;;10.40;82.10;10.80;99640.00;;;;344671;28;83439;-88
2022/03/12 00:12:37;;;;;;;;;;;10.30;82.00;10.70;99651.00;;;;345052;28;97207;-87
2022/03/12 00:12:50;;;;;;;;;;;10.40;82.20;10.70;99640.00;;;;345990;28;82480;-88
2022/03/12 00:13:01;;;;;;;;;;;10.30;82.00;10.70;99642.00;;;;346566;28;97107;-88
2022/03/12 00:13:13;;;;;;;;;;;10.30;81.90;10.80;99647.00;;;;348891;27;83377;-88
2022/03/12 00:13:25;;;;;;;;;;;10.30;81.80;10.80;99656.00;;;;347626;27;96152;-88
2022/03/12 00:13:37;;;;;;;;;;;10.30;81.90;10.70;99649.00;;;;345427;28;82529;-88
2022/03/12 00:13:50;;;;;;;;;;;10.30;81.90;10.70;99651.00;;;;349364;28;92112;-88
2022/03/12 00:14:04;;;;;;;;;;;10.30;82.00;10.70;99658.00;;;;347394;28;82481;-88
2022/03/12 00:14:16;;;;;;;;;;;10.30;82.00;10.70;99640.00;;;;346544;28;95721;-88
2022/03/12 00:14:30;;;;;;;;;;;10.30;82.20;10.70;99642.00;;;;344651;28;83214;-88
2022/03/12 00:14:48;;;;;;;;;;;10.30;82.00;10.70;99642.00;;;;346269;27;97017;-88
2022/03/12 00:15:09;;;;;;;;;;;10.30;82.30;10.60;99638.00;;;;347480;28;83391;-88
2022/03/12 00:15:20;;;;;;;;;;;10.30;82.30;10.60;99644.00;;;;346474;28;96523;-88
2022/03/12 00:15:33;;;;;;;;;;;10.30;82.50;10.70;99650.00;;;;348838;27;83405;-88
2022/03/12 00:15:47;;;;;;;;;;;10.30;82.50;10.60;99655.00;;;;348134;27;93359;-88
2022/03/12 00:15:59;;;;;;;;;;;10.30;82.40;10.60;99649.00;;;;347210;28;82509;-88
2022/03/12 00:16:15;;;;;;;;;;;10.30;82.30;10.70;99646.00;;;;348062;27;96350;-88
2022/03/12 00:16:27;;;;;;;;;;;10.30;82.40;10.70;99642.00;;;;346003;28;83609;-88
2022/03/12 00:16:40;;;;;;;;;;;10.30;82.50;10.70;99649.00;;;;344597;28;96550;-88
2022/03/12 00:16:52;;;;;;;;;;;10.30;82.70;10.80;99643.00;;;;347507;28;83420;-88
2022/03/12 00:17:04;;;;;;;;;;;10.30;82.70;10.70;99647.00;;;;343870;28;94075;-87
2022/03/12 00:17:16;;;;;;;;;;;10.30;82.70;10.60;99645.00;;;;345998;28;83904;-88
2022/03/12 00:17:29;;;;;;;;;;;10.30;82.70;10.60;99648.00;;;;345299;28;93808;-88
2022/03/12 00:17:45;;;;;;;;;;;10.30;82.60;10.60;99653.00;;;;345435;28;83437;-88
2022/03/12 00:17:57;;;;;;;;;;;10.30;82.70;10.60;99650.00;;;;343923;28;96661;-88
2022/03/12 00:18:09;;;;;;;;;;;10.30;82.70;10.60;99649.00;;;;345941;28;82584;-88
2022/03/12 00:18:24;;;;;;;;;;;10.20;82.50;10.60;99652.00;;;;342344;28;96464;-87
2022/03/12 00:18:36;;;;;;;;;;;10.20;82.50;10.60;99655.00;;;;344710;28;83402;-88
2022/03/12 00:18:50;;;;;;;;;;;10.20;82.60;10.60;99657.00;;;;345243;28;96730;-88
2022/03/12 00:19:04;;;;;;;;;;;10.20;82.70;10.60;99650.00;;;;346124;28;83260;-88
2022/03/12 00:19:16;;;;;;;;;;;10.20;82.90;10.60;99649.00;;;;345310;28;96440;-88
2022/03/12 00:19:28;;;;;;;;;;;10.20;83.00;10.70;99648.00;;;;348818;27;82573;-87
2022/03/12 00:19:42;;;;;;;;;;;10.20;82.90;10.70;99651.00;;;;347337;27;97007;-87
2022/03/12 00:19:59;;;;;;;;;;;10.20;83.00;10.60;99649.00;;;;348761;27;83557;-88
2022/03/12 00:20:16;;;;;;;;;;;10.20;83.20;10.70;99652.00;;;;346571;28;96400;-88
2022/03/12 00:20:32;;;;;;;;;;;10.20;82.80;10.60;99650.00;;;;344673;28;82551;-88
2022/03/12 00:20:47;;;;;;;;;;;10.20;82.90;10.70;99651.00;;;;342466;28;93931;-88
2022/03/12 00:21:01;;;;;;;;;;;10.20;83.10;10.70;99641.00;;;;346129;28;83346;-88
2022/03/12 00:21:13;;;;;;;;;;;10.20;83.00;10.60;99653.00;;;;346473;28;95259;-88
2022/03/12 00:21:25;;;;;;;;;;;10.20;83.00;10.60;99648.00;;;;346006;28;83390;-88
2022/03/12 00:21:41;;;;;;;;;;;10.20;82.90;10.60;99648.00;;;;345357;28;95525;-88
2022/03/12 00:21:54;;;;;;;;;;;10.20;82.90;10.60;99657.00;;;;345875;28;82554;-88
2022/03/12 00:22:06;;;;;;;;;;;10.20;83.10;10.60;99652.00;;;;345111;28;97211;-88
2022/03/12 00:22:20;;;;;;;;;;;10.20;82.90;10.60;99652.00;;;;346103;28;83501;-88
2022/03/12 00:22:32;;;;;;;;;;;10.20;83.50;10.60;99651.00;;;;347936;27;96801;-88
2022/03/12 00:22:48;;;;;;;;;;;10.20;83.70;10.60;99651.00;;;;344587;28;82534;-88
2022/03/12 00:23:00;;;;;;;;;;;10.20;83.10;10.70;99653.00;;;;343839;28;97789;-88
2022/03/12 00:23:16;;;;;;;;;;;10.20;82.90;10.70;99651.00;;;;346036;28;83496;-88
2022/03/12 00:23:30;;;;;;;;;;;10.20;83.10;10.60;99654.00;;;;345154;28;96178;-88
2022/03/12 00:23:44;;;;;;;;;;;10.20;83.20;10.60;99665.00;;;;348876;27;83728;-88
2022/03/12 00:23:57;;;;;;;;;;;10.20;83.30;10.60;99654.00;;;;346741;28;95269;-88
2022/03/12 00:24:12;;;;;;;;;;;10.20;83.40;10.60;99646.00;;;;348839;27;82507;-88
2022/03/12 00:24:26;;;;;;;;;;;10.20;83.30;10.60;99655.00;;;;346429;28;96595;-88
2022/03/12 00:24:40;;;;;;;;;;;10.20;83.40;10.60;99647.00;;;;347413;28;82455;-88
2022/03/12 00:24:52;;;;;;;;;;;10.20;83.30;10.60;99648.00;;;;345217;28;96900;-88
2022/03/12 00:25:09;;;;;;;;;;;10.20;83.40;10.60;99653.00;;;;346079;28;82667;-88
2022/03/12 00:25:26;;;;;;;;;;;10.20;83.50;10.50;99650.00;;;;345195;28;94835;-87
2022/03/12 00:25:38;;;;;;;;;;;10.20;83.50;10.60;99647.00;;;;346510;27;82756;-88
2022/03/12 00:25:50;;;;;;;;;;;10.20;83.50;10.60;99654.00;;;;348142;27;93832;-88
2022/03/12 00:26:02;;;;;;;;;;;10.20;83.70;10.60;99655.00;;;;345966;28;82518;-87
2022/03/12 00:26:15;;;;;;;;;;;10.20;83.80;10.50;99648.00;;;;346665;28;96817;-88
2022/03/12 00:26:28;;;;;;;;;;;10.20;83.60;10.60;99650.00;;;;345957;28;83498;-87
2022/03/12 00:26:40;;;;;;;;;;;10.20;83.50;10.60;99652.00;;;;345076;28;97502;-88
2022/03/12 00:26:52;;;;;;;;;;;10.20;83.50;10.60;99641.00;;;;345969;28;83482;-88
2022/03/12 00:27:06;;;;;;;;;;;10.20;83.50;10.60;99646.00;;;;345360;28;94110;-88
2022/03/12 00:27:18;;;;;;;;;;;10.20;83.50;10.60;99645.00;;;;345982;28;82576;-88
2022/03/12 00:27:30;;;;;;;;;;;10.20;83.70;10.50;99633.00;;;;346541;28;95042;-88
2022/03/12 00:27:44;;;;;;;;;;;10.20;83.80;10.60;99655.00;;;;344572;28;83451;-88
2022/03/12 00:27:55;;;;;;;;;;;10.20;83.70;10.60;99641.00;;;;345346;28;96327;-88
2022/03/12 00:28:08;;;;;;;;;;;10.20;83.60;10.60;99639.00;;;;347541;28;82433;-88
2022/03/12 00:28:20;;;;;;;;;;;10.10;83.70;10.60;99642.00;;;;347980;27;94172;-88
2022/03/12 00:28:32;;;;;;;;;;;10.10;83.90;10.60;99645.00;;;;347322;28;83429;-88
2022/03/12 00:28:44;;;;;;;;;;;10.10;83.90;10.60;99652.00;;;;342418;28;96008;-88
2022/03/12 00:28:56;;;;;;;;;;;10.20;83.80;10.60;99639.00;;;;344399;28;83564;-88
2022/03/12 00:29:14;;;;;;;;;;;10.20;83.70;10.60;99644.00;;;;346663;28;95323;-89
2022/03/12 00:29:27;;;;;;;;;;;10.20;83.70;10.60;99652.00;;;;348786;27;83452;-88
2022/03/12 00:29:39;;;;;;;;;;;10.20;83.80;10.60;99646.00;;;;343811;28;98110;-88
2022/03/12 00:29:51;;;;;;;;;;;10.20;83.70;10.60;99644.00;;;;346064;28;83429;-88
2022/03/12 00:30:03;;;;;;;;;;;10.20;83.70;10.60;99651.00;;;;348233;27;96664;-88
2022/03/12 00:30:21;;;;;;;;;;;10.20;83.90;10.60;99654.00;;;;345007;28;83338;-88
2022/03/12 00:30:34;;;;;;;;;;;10.20;83.90;10.50;99653.00;;;;345454;28;97247;-88
2022/03/12 00:30:47;;;;;;;;;;;10.10;83.90;10.50;99645.00;;;;343434;28;83541;-88
2022/03/12 00:30:59;;;;;;;;;;;10.20;84.10;10.60;99644.00;;;;344168;28;96810;-88
2022/03/12 00:31:11;;;;;;;;;;;10.10;84.00;10.60;99647.00;;;;344859;28;83567;-88
2022/03/12 00:31:23;;;;;;;;;;;10.10;83.90;10.60;99638.00;;;;342727;28;96463;-88
2022/03/12 00:31:35;;;;;;;;;;;10.20;84.00;10.60;99638.00;;;;347689;27;82357;-86
2022/03/12 00:31:48;;;;;;;;;;;10.20;84.10;10.60;99645.00;;;;346353;28;97041;-88
2022/03/12 00:32:00;;;;;;;;;;;10.20;84.00;10.60;99643.00;;;;346350;28;83232;-88
2022/03/12 00:32:14;;;;;;;;;;;10.10;84.10;10.60;99644.00;;;;345273;28;95640;-87
2022/03/12 00:32:27;;;;;;;;;;;10.20;84.00;10.60;99648.00;;;;346234;28;83600;-88
2022/03/12 00:32:38;;;;;;;;;;;10.20;83.90;10.70;99647.00;;;;345394;28;96813;-88
2022/03/12 00:32:51;;;;;;;;;;;10.20;84.00;10.60;99639.00;;;;346234;28;83417;-88
2022/03/12 00:33:03;;;;;;;;;;;10.20;84.20;10.60;99651.00;;;;344250;28;94782;-88
2022/03/12 00:33:17;;;;;;;;;;;10.10;84.00;10.60;99640.00;;;;347810;28;83331;-88
2022/03/12 00:33:29;;;;;;;;;;;10.10;83.90;10.60;99653.00;;;;344103;28;94315;-88
2022/03/12 00:33:41;;;;;;;;;;;10.20;84.10;10.60;99654.00;;;;346222;28;83590;-88
2022/03/12 00:33:53;;;;;;;;;;;10.10;83.80;10.60;99640.00;;;;345453;28;97632;-88
2022/03/12 00:34:05;;;;;;;;;;;10.20;84.00;10.60;99647.00;;;;347643;28;83450;-87
2022/03/12 00:34:17;;;;;;;;;;;10.10;84.10;10.60;99647.00;;;;346891;28;92775;-88
2022/03/12 00:34:30;;;;;;;;;;;10.10;84.20;10.60;99647.00;;;;347668;28;83439;-88
2022/03/12 00:34:41;;;;;;;;;;;10.10;84.10;10.50;99636.00;;;;343587;28;94714;-88
2022/03/12 00:34:53;;;;;;;;;;;10.20;84.20;10.50;99649.00;;;;346119;28;83505;-88
2022/03/12 00:35:06;;;;;;;;;;;10.10;84.20;10.50;99644.00;;;;345337;28;96443;-88
2022/03/12 00:35:18;;;;;;;;;;;10.10;84.40;10.50;99651.00;;;;346354;28;82491;-87
2022/03/12 00:35:31;;;;;;;;;;;10.10;84.30;10.60;99656.00;;;;345502;28;97189;-88
2022/03/12 00:35:43;;;;;;;;;;;10.10;84.20;10.60;99648.00;;;;347707;28;83434;-89
2022/03/12 00:35:55;;;;;;;;;;;10.10;84.40;10.60;99644.00;;;;348208;27;98382;-88
2022/03/12 00:36:07;;;;;;;;;;;10.10;84.30;10.50;99639.00;;;;346246;28;83375;-87
2022/03/12 00:36:19;;;;;;;;;;;10.10;84.40;10.60;99650.00;;;;344216;28;94122;-88
2022/03/12 00:36:30;;;;;;;;;;;10.10;84.30;10.50;99634.00;;;;347735;28;83258;-87
2022/03/12 00:36:42;;;;;;;;;;;10.10;84.30;10.50;99646.00;;;;344181;28;93139;-88
2022/03/12 00:36:54;;;;;;;;;;;10.10;84.60;10.50;99632.00;;;;347625;28;83426;-88
2022/03/12 00:37:06;;;;;;;;;;;10.10;84.60;10.50;99643.00;;;;344110;28;96810;-88
2022/03/12 00:37:19;;;;;;;;;;;10.10;84.70;10.50;99653.00;;;;346276;28;82376;-88
2022/03/12 00:37:31;;;;;;;;;;;10.10;84.60;10.50;99649.00;;;;346904;28;95968;-88
2022/03/12 00:37:43;;;;;;;;;;;10.10;84.60;10.50;99648.00;;;;346352;28;82436;-87
2022/03/12 00:37:55;;;;;;;;;;;10.10;84.50;10.50;99637.00;;;;345493;28;98274;-88
2022/03/12 00:38:07;;;;;;;;;;;10.10;85.10;10.50;99640.00;;;;343312;28;82587;-87
2022/03/12 00:38:21;;;;;;;;;;;10.10;84.40;10.60;99648.00;;;;345529;28;97107;-88
2022/03/12 00:38:33;;;;;;;;;;;10.10;84.40;10.50;99645.00;;;;344879;28;83397;-88
2022/03/12 00:38:45;;;;;;;;;;;10.10;84.60;10.50;99645.00;;;;342600;28;95570;-88
2022/03/12 00:38:57;;;;;;;;;;;10.10;84.60;10.60;99651.00;;;;345015;28;82403;-88
2022/03/12 00:39:09;;;;;;;;;;;10.10;84.60;10.50;99632.00;;;;346908;28;97563;-88
2022/03/12 00:39:21;;;;;;;;;;;10.10;84.70;10.60;99641.00;;;;343417;28;83467;-87
2022/03/12 00:39:33;;;;;;;;;;;10.10;84.60;10.50;99644.00;;;;346843;28;96424;-88
2022/03/12 00:39:47;;;;;;;;;;;10.10;84.60;10.50;99644.00;;;;347634;28;83467;-88
2022/03/12 00:39:59;;;;;;;;;;;10.10;85.00;10.50;99651.00;;;;346791;28;97502;-88
2022/03/12 00:40:12;;;;;;;;;;;10.10;85.10;10.50;99643.00;;;;344877;28;82571;-88
2022/03/12 00:40:23;;;;;;;;;;;10.10;84.90;10.50;99653.00;;;;345495;28;95529;-87
2022/03/12 00:40:37;;;;;;;;;;;10.10;84.90;10.50;99638.00;;;;347606;27;83356;-88
2022/03/12 00:40:49;;;;;;;;;;;10.10;85.00;10.50;99640.00;;;;344299;28;96551;-88
2022/03/12 00:41:04;;;;;;;;;;;10.10;84.80;10.60;99645.00;;;;346273;28;83444;-88
2022/03/12 00:41:16;;;;;;;;;;;10.10;84.80;10.50;99650.00;;;;344149;28;96906;-88
2022/03/12 00:41:29;;;;;;;;;;;10.10;84.90;10.50;99651.00;;;;347400;27;83542;-88
2022/03/12 00:41:43;;;;;;;;;;;10.10;84.90;10.50;99639.00;;;;344058;28;95979;-88
2022/03/12 00:41:55;;;;;;;;;;;10.10;84.80;10.50;99651.00;;;;346303;28;83358;-88
2022/03/12 00:42:07;;;;;;;;;;;10.10;84.90;10.40;99647.00;;;;344034;28;96025;-88
2022/03/12 00:42:19;;;;;;;;;;;10.10;84.80;10.50;99657.00;;;;345051;28;82482;-88
2022/03/12 00:42:31;;;;;;;;;;;10.10;84.80;10.50;99653.00;;;;345264;28;96523;-88
2022/03/12 00:42:43;;;;;;;;;;;10.10;85.00;10.50;99646.00;;;;346452;28;83507;-88
2022/03/12 00:42:55;;;;;;;;;;;10.10;85.20;10.50;99647.00;;;;344120;28;96383;-88
2022/03/12 00:43:08;;;;;;;;;;;10.10;84.90;10.50;99662.00;;;;347724;28;83348;-88
2022/03/12 00:43:20;;;;;;;;;;;10.10;84.90;10.60;99647.00;;;;346834;28;95539;-88
2022/03/12 00:43:31;;;;;;;;;;;10.10;84.90;10.60;99649.00;;;;345971;28;84168;-88
2022/03/12 00:43:44;;;;;;;;;;;10.10;84.80;10.50;99647.00;;;;343746;28;94283;-88
2022/03/12 00:43:55;;;;;;;;;;;10.10;84.80;10.60;99648.00;;;;346069;28;83488;-88
2022/03/12 00:44:09;;;;;;;;;;;10.10;85.00;10.50;99655.00;;;;346651;28;96498;-88
2022/03/12 00:44:21;;;;;;;;;;;10.10;85.10;10.40;99655.00;;;;348642;28;83370;-88
2022/03/12 00:44:33;;;;;;;;;;;10.10;84.90;10.50;99647.00;;;;346589;28;94579;-88
2022/03/12 00:44:44;;;;;;;;;;;10.10;85.00;10.50;99652.00;;;;346120;28;83441;-88
2022/03/12 00:44:56;;;;;;;;;;;10.10;85.00;10.50;99651.00;;;;348432;27;92789;-88
2022/03/12 00:45:10;;;;;;;;;;;10.10;84.80;10.50;99658.00;;;;346410;28;82316;-88
2022/03/12 00:45:22;;;;;;;;;;;10.10;84.90;10.50;99660.00;;;;345456;28;97173;-88
2022/03/12 00:45:34;;;;;;;;;;;10.10;85.00;10.50;99651.00;;;;346238;28;83402;-88
2022/03/12 00:45:46;;;;;;;;;;;10.10;85.10;10.50;99655.00;;;;348175;27;95670;-87
2022/03/12 00:45:58;;;;;;;;;;;10.10;85.00;10.50;99653.00;;;;346215;28;83357;-88
2022/03/12 00:46:10;;;;;;;;;;;10.10;85.10;10.40;99655.00;;;;344034;28;95610;-88
2022/03/12 00:46:22;;;;;;;;;;;10.00;85.10;10.50;99649.00;;;;346271;28;83432;-88
2022/03/12 00:46:34;;;;;;;;;;;10.10;85.00;10.50;99656.00;;;;343539;28;97285;-87
2022/03/12 00:46:46;;;;;;;;;;;10.10;85.00;10.50;99647.00;;;;346152;28;83470;-87
2022/03/12 00:46:58;;;;;;;;;;;10.10;85.00;10.50;99651.00;;;;345563;28;96601;-88
2022/03/12 00:47:09;;;;;;;;;;;10.10;84.90;10.50;99645.00;;;;346387;28;83420;-88
2022/03/12 00:47:21;;;;;;;;;;;10.10;85.10;10.50;99656.00;;;;345256;28;95597;-88
2022/03/12 00:47:34;;;;;;;;;;;10.10;85.20;10.50;99661.00;;;;344830;28;82508;-88
2022/03/12 00:47:48;;;;;;;;;;;10.10;85.10;10.50;99657.00;;;;345272;28;96556;-88
2022/03/12 00:48:00;;;;;;;;;;;10.10;85.10;10.50;99653.00;;;;346213;28;83259;-87
2022/03/12 00:48:12;;;;;;;;;;;10.10;85.10;10.50;99655.00;;;;345522;28;97294;-88
2022/03/12 00:48:43;;;;;;;;;;;10.10;85.10;10.50;99652.00;;;;346127;28;82414;-88
2022/03/12 00:48:55;;;;;;;;;;;10.10;85.10;10.60;99662.00;;;;344145;28;95349;-88
2022/03/12 00:49:07;;;;;;;;;;;10.10;85.10;10.60;99658.00;;;;344875;28;83330;-88
2022/03/12 00:49:19;;;;;;;;;;;10.10;85.00;10.60;99658.00;;;;345431;28;96557;-88
2022/03/12 00:49:31;;;;;;;;;;;10.10;85.10;10.60;99664.00;;;;346181;28;83387;-88
2022/03/12 00:49:43;;;;;;;;;;;10.10;85.10;10.50;99659.00;;;;346895;28;95298;-88
2022/03/12 00:49:55;;;;;;;;;;;10.10;85.20;10.50;99655.00;;;;347336;28;82630;-87
2022/03/12 00:50:08;;;;;;;;;;;10.10;85.30;10.60;99652.00;;;;345301;28;92921;-88
2022/03/12 00:50:20;;;;;;;;;;;10.10;85.20;10.60;99655.00;;;;344904;28;83507;-88
2022/03/12 00:50:31;;;;;;;;;;;10.10;85.10;10.60;99667.00;;;;345378;28;94822;-87
2022/03/12 00:50:44;;;;;;;;;;;10.10;85.10;10.60;99653.00;;;;347409;28;83404;-88
2022/03/12 00:50:56;;;;;;;;;;;10.10;85.10;10.60;99658.00;;;;348171;27;96865;-88
2022/03/12 00:51:08;;;;;;;;;;;10.10;85.10;10.60;99647.00;;;;349052;27;82403;-87
2022/03/12 00:51:20;;;;;;;;;;;10.10;85.20;10.60;99651.00;;;;345521;28;93324;-88
2022/03/12 00:51:32;;;;;;;;;;;10.10;85.10;10.60;99656.00;;;;347543;28;83439;-87
2022/03/12 00:51:44;;;;;;;;;;;10.10;85.10;10.60;99657.00;;;;344179;28;95277;-88
2022/03/12 00:51:57;;;;;;;;;;;10.10;85.20;10.50;99656.00;;;;349025;27;83198;-88
2022/03/12 00:52:08;;;;;;;;;;;10.10;85.30;10.50;99662.00;;;;346890;27;96322;-88
2022/03/12 00:52:21;;;;;;;;;;;10.10;85.20;10.60;99666.00;;;;348964;27;83336;-88
2022/03/12 00:52:33;;;;;;;;;;;10.10;85.20;10.50;99672.00;;;;346513;28;98454;-88
2022/03/12 00:52:44;;;;;;;;;;;10.10;85.10;10.60;99676.00;;;;347589;28;82418;-88
2022/03/12 00:52:56;;;;;;;;;;;10.10;85.10;10.50;99663.00;;;;346939;28;94189;-88
2022/03/12 00:53:08;;;;;;;;;;;10.10;85.30;10.50;99662.00;;;;346286;28;82545;-88
2022/03/12 00:53:20;;;;;;;;;;;10.10;85.30;10.60;99647.00;;;;345409;28;96176;-88
2022/03/12 00:53:32;;;;;;;;;;;10.10;85.10;10.50;99659.00;;;;344873;28;82419;-88
2022/03/12 00:53:44;;;;;;;;;;;10.10;85.20;10.50;99652.00;;;;344114;28;96548;-88
2022/03/12 00:53:56;;;;;;;;;;;10.10;85.20;10.50;99664.00;;;;346104;28;84046;-88
2022/03/12 00:54:10;;;;;;;;;;;10.10;85.20;10.50;99669.00;;;;348318;27;94508;-88
2022/03/12 00:54:21;;;;;;;;;;;10.10;85.10;10.50;99661.00;;;;346177;28;83439;-88
2022/03/12 00:54:34;;;;;;;;;;;10.10;85.00;10.60;99669.00;;;;346837;28;97312;-88
2022/03/12 00:54:45;;;;;;;;;;;10.10;85.10;10.50;99655.00;;;;346159;28;82584;-88
2022/03/12 00:54:57;;;;;;;;;;;10.10;85.30;10.50;99661.00;;;;346823;28;96823;-88
2022/03/12 00:55:09;;;;;;;;;;;10.10;85.20;10.50;99657.00;;;;346335;28;83318;-88
2022/03/12 00:55:21;;;;;;;;;;;10.10;85.20;10.50;99662.00;;;;345478;28;95635;-88
2022/03/12 00:55:33;;;;;;;;;;;10.10;85.30;10.40;99662.00;;;;345021;28;83413;-88
2022/03/12 00:55:44;;;;;;;;;;;10.10;85.20;10.50;99662.00;;;;345175;28;94205;-87
2022/03/12 00:55:56;;;;;;;;;;;10.10;85.10;10.50;99676.00;;;;344828;28;83440;-88
2022/03/12 00:56:08;;;;;;;;;;;10.10;85.20;10.50;99659.00;;;;345416;28;97043;-88
2022/03/12 00:56:20;;;;;;;;;;;10.10;85.10;10.50;99662.00;;;;344921;28;83556;-87
2022/03/12 00:56:32;;;;;;;;;;;10.10;85.20;10.50;99664.00;;;;343941;28;97512;-88
2022/03/12 00:56:44;;;;;;;;;;;10.10;85.20;10.50;99660.00;;;;347366;28;82516;-88
2022/03/12 00:56:55;;;;;;;;;;;10.10;85.30;10.50;99665.00;;;;344029;28;96660;-88
2022/03/12 00:57:10;;;;;;;;;;;10.10;85.20;10.60;99662.00;;;;346260;28;82575;-88
2022/03/12 00:57:22;;;;;;;;;;;10.10;85.20;10.60;99659.00;;;;345461;28;95513;-88
2022/03/12 00:57:36;;;;;;;;;;;10.10;85.10;10.60;99664.00;;;;346231;28;83338;-88
2022/03/12 00:57:48;;;;;;;;;;;10.10;85.10;10.60;99654.00;;;;348135;27;97276;-88
2022/03/12 00:58:00;;;;;;;;;;;10.10;85.10;10.50;99662.00;;;;348766;27;82498;-88
2022/03/12 00:58:12;;;;;;;;;;;10.10;85.10;10.50;99662.00;;;;346886;28;96570;-88
2022/03/12 00:58:24;;;;;;;;;;;10.10;85.80;10.50;99657.00;;;;349143;27;82391;-88
2022/03/12 00:58:36;;;;;;;;;;;10.10;85.20;10.50;99661.00;;;;346230;28;96273;-88
2022/03/12 00:58:47;;;;;;;;;;;10.10;85.20;10.50;99662.00;;;;346168;28;83435;-88
2022/03/12 00:58:59;;;;;;;;;;;10.10;85.20;10.50;99663.00;;;;344032;28;93839;-87
2022/03/12 00:59:11;;;;;;;;;;;10.10;85.30;10.50;99661.00;;;;346042;28;83559;-88
2022/03/12 00:59:23;;;;;;;;;;;10.10;85.30;10.50;99667.00;;;;345291;28;96506;-88
2022/03/12 00:59:35;;;;;;;;;;;10.10;85.30;10.50;99665.00;;;;346094;28;83393;-88
2022/03/12 00:59:47;;;;;;;;;;;10.10;85.40;10.50;99664.00;;;;346814;28;96800;-87
2022/03/12 00:59:58;;;;;;;;;;;10.10;85.30;10.50;99651.00;;;;346189;28;83362;-88
2022/03/12 01:00:16;;;;;;;;;;;10.10;85.20;10.50;99655.00;;;;345454;28;93278;-88
2022/03/12 01:00:28;;;;;;;;;;;10.10;85.20;10.50;99657.00;;;;347659;28;83409;-88
2022/03/12 01:00:40;;;;;;;;;;;10.10;85.10;10.50;99654.00;;;;345354;28;94197;-88
2022/03/12 01:00:52;;;;;;;;;;;10.10;85.10;10.50;99662.00;;;;349050;27;83383;-88
2022/03/12 01:01:04;;;;;;;;;;;10.10;85.10;10.50;99668.00;;;;345407;28;95573;-88
2022/03/12 01:01:17;;;;;;;;;;;10.10;85.20;10.50;99651.00;;;;347636;28;83307;-88
2022/03/12 01:01:29;;;;;;;;;;;10.10;85.10;10.50;99652.00;;;;349525;27;97036;-87
2022/03/12 01:01:41;;;;;;;;;;;10.10;85.10;10.50;99655.00;;;;347912;27;83281;-87
2022/03/12 01:01:53;;;;;;;;;;;10.10;85.20;10.60;99652.00;;;;345160;28;97425;-88
2022/03/12 01:02:06;;;;;;;;;;;10.10;85.10;10.60;99650.00;;;;346083;28;83568;-88
2022/03/12 01:02:18;;;;;;;;;;;10.10;85.20;10.60;99655.00;;;;345496;28;96299;-88
2022/03/12 01:02:30;;;;;;;;;;;10.10;85.20;10.60;99655.00;;;;347605;28;83389;-87
2022/03/12 01:02:42;;;;;;;;;;;10.10;85.20;10.50;99659.00;;;;345377;28;98280;-88
2022/03/12 01:02:54;;;;;;;;;;;10.10;85.30;10.50;99657.00;;;;347470;28;83453;-88
2022/03/12 01:03:05;;;;;;;;;;;10.10;85.10;10.60;99660.00;;;;346683;28;97316;-88
2022/03/12 01:03:18;;;;;;;;;;;10.10;85.10;10.60;99661.00;;;;346240;28;82567;-88
2022/03/12 01:03:30;;;;;;;;;;;10.10;85.10;10.60;99663.00;;;;346802;28;94133;-88